sensor_id;sensor_type;location;lat;lon;timestamp;temperature;humidity
4501;DHT22;2263;54.654;9.410;2022-08-19T00:02:16;22.50;74.50
4501;DHT22;2263;54.654;9.410;2022-08-19T00:04:43;22.50;74.30
4501;DHT22;2263;54.654;9.410;2022-08-19T00:07:13;22.50;74.30
4501;DHT22;2263;54.654;9.410;2022-08-19T00:09:40;22.50;74.40
4501;DHT22;2263;54.654;9.410;2022-08-19T00:12:07;22.50;74.40
4501;DHT22;2263;54.654;9.410;2022-08-19T00:14:35;22.50;74.50
4501;DHT22;2263;54.654;9.410;2022-08-19T00:17:03;22.50;74.50
4501;DHT22;2263;54.654;9.410;2022-08-19T00:19:35;22.50;74.50
4501;DHT22;2263;54.654;9.410;2022-08-19T00:22:03;22.50;74.50
4501;DHT22;2263;54.654;9.410;2022-08-19T00:24:32;22.40;74.40
4501;DHT22;2263;54.654;9.410;2022-08-19T00:26:59;22.40;74.30
4501;DHT22;2263;54.654;9.410;2022-08-19T00:29:48;22.40;74.30
4501;DHT22;2263;54.654;9.410;2022-08-19T00:32:18;22.40;74.30
4501;DHT22;2263;54.654;9.410;2022-08-19T00:34:46;22.40;74.40
4501;DHT22;2263;54.654;9.410;2022-08-19T00:37:13;22.40;74.30
4501;DHT22;2263;54.654;9.410;2022-08-19T00:39:40;22.40;74.50
4501;DHT22;2263;54.654;9.410;2022-08-19T00:42:08;22.40;74.50
4501;DHT22;2263;54.654;9.410;2022-08-19T00:44:35;22.40;74.50
4501;DHT22;2263;54.654;9.410;2022-08-19T00:47:03;22.40;74.50
4501;DHT22;2263;54.654;9.410;2022-08-19T00:49:41;22.40;75.10
4501;DHT22;2263;54.654;9.410;2022-08-19T00:52:19;22.30;74.40
4501;DHT22;2263;54.654;9.410;2022-08-19T00:54:47;22.30;74.40
4501;DHT22;2263;54.654;9.410;2022-08-19T00:57:44;22.30;74.50
4501;DHT22;2263;54.654;9.410;2022-08-19T01:00:14;22.30;74.50
4501;DHT22;2263;54.654;9.410;2022-08-19T01:02:42;22.30;74.40
4501;DHT22;2263;54.654;9.410;2022-08-19T01:05:13;22.30;74.40
4501;DHT22;2263;54.654;9.410;2022-08-19T01:07:42;22.30;74.50
4501;DHT22;2263;54.654;9.410;2022-08-19T01:10:12;22.30;74.50
4501;DHT22;2263;54.654;9.410;2022-08-19T01:12:41;22.30;74.50
4501;DHT22;2263;54.654;9.410;2022-08-19T01:15:11;22.20;74.50
4501;DHT22;2263;54.654;9.410;2022-08-19T01:17:40;22.20;74.50
4501;DHT22;2263;54.654;9.410;2022-08-19T01:20:14;22.20;74.40
4501;DHT22;2263;54.654;9.410;2022-08-19T01:22:57;22.20;74.30
4501;DHT22;2263;54.654;9.410;2022-08-19T01:25:30;22.20;74.40
4501;DHT22;2263;54.654;9.410;2022-08-19T01:27:59;22.20;74.40
4501;DHT22;2263;54.654;9.410;2022-08-19T01:30:37;22.20;74.50
4501;DHT22;2263;54.654;9.410;2022-08-19T01:33:10;22.20;74.40
4501;DHT22;2263;54.654;9.410;2022-08-19T01:35:37;22.20;74.60
4501;DHT22;2263;54.654;9.410;2022-08-19T01:38:08;22.20;74.60
4501;DHT22;2263;54.654;9.410;2022-08-19T01:40:39;22.10;74.40
4501;DHT22;2263;54.654;9.410;2022-08-19T01:43:06;22.10;74.40
4501;DHT22;2263;54.654;9.410;2022-08-19T01:45:35;22.10;74.40
4501;DHT22;2263;54.654;9.410;2022-08-19T01:48:03;22.10;74.40
4501;DHT22;2263;54.654;9.410;2022-08-19T01:50:32;22.10;74.40
4501;DHT22;2263;54.654;9.410;2022-08-19T01:53:01;22.10;74.40
4501;DHT22;2263;54.654;9.410;2022-08-19T01:55:35;22.10;74.50
4501;DHT22;2263;54.654;9.410;2022-08-19T01:58:11;22.10;74.40
4501;DHT22;2263;54.654;9.410;2022-08-19T02:00:39;22.00;74.30
4501;DHT22;2263;54.654;9.410;2022-08-19T02:03:07;22.00;74.20
4501;DHT22;2263;54.654;9.410;2022-08-19T02:05:37;22.00;74.40
4501;DHT22;2263;54.654;9.410;2022-08-19T02:08:05;22.00;74.40
4501;DHT22;2263;54.654;9.410;2022-08-19T02:10:32;22.00;74.40
4501;DHT22;2263;54.654;9.410;2022-08-19T02:12:59;22.00;74.40
4501;DHT22;2263;54.654;9.410;2022-08-19T02:15:27;22.00;74.40
4501;DHT22;2263;54.654;9.410;2022-08-19T02:17:54;22.00;74.50
4501;DHT22;2263;54.654;9.410;2022-08-19T02:20:21;22.00;74.50
4501;DHT22;2263;54.654;9.410;2022-08-19T02:22:49;21.90;74.20
4501;DHT22;2263;54.654;9.410;2022-08-19T02:25:17;21.90;74.30
4501;DHT22;2263;54.654;9.410;2022-08-19T02:27:44;21.90;74.20
4501;DHT22;2263;54.654;9.410;2022-08-19T02:30:17;21.90;74.20
4501;DHT22;2263;54.654;9.410;2022-08-19T02:32:45;21.90;74.30
4501;DHT22;2263;54.654;9.410;2022-08-19T02:35:14;21.90;74.50
4501;DHT22;2263;54.654;9.410;2022-08-19T02:37:42;21.90;74.40
4501;DHT22;2263;54.654;9.410;2022-08-19T02:40:31;21.90;74.40
4501;DHT22;2263;54.654;9.410;2022-08-19T02:43:02;21.90;74.30
4501;DHT22;2263;54.654;9.410;2022-08-19T02:45:37;21.80;74.20
4501;DHT22;2263;54.654;9.410;2022-08-19T02:48:07;21.80;74.20
4501;DHT22;2263;54.654;9.410;2022-08-19T02:50:49;21.80;74.20
4501;DHT22;2263;54.654;9.410;2022-08-19T02:53:26;21.80;74.40
4501;DHT22;2263;54.654;9.410;2022-08-19T02:55:54;21.80;74.30
4501;DHT22;2263;54.654;9.410;2022-08-19T02:58:22;21.80;74.40
4501;DHT22;2263;54.654;9.410;2022-08-19T03:00:54;21.80;74.40
4501;DHT22;2263;54.654;9.410;2022-08-19T03:03:22;21.80;74.30
4501;DHT22;2263;54.654;9.410;2022-08-19T03:05:49;21.80;74.40
4501;DHT22;2263;54.654;9.410;2022-08-19T03:08:24;21.70;74.30
4501;DHT22;2263;54.654;9.410;2022-08-19T03:10:52;21.80;74.40
4501;DHT22;2263;54.654;9.410;2022-08-19T03:13:20;21.80;74.30
4501;DHT22;2263;54.654;9.410;2022-08-19T03:15:47;21.70;74.30
4501;DHT22;2263;54.654;9.410;2022-08-19T03:18:15;21.70;75.00
4501;DHT22;2263;54.654;9.410;2022-08-19T03:20:46;21.70;74.20
4501;DHT22;2263;54.654;9.410;2022-08-19T03:23:15;21.70;74.30
4501;DHT22;2263;54.654;9.410;2022-08-19T03:25:46;21.70;74.30
4501;DHT22;2263;54.654;9.410;2022-08-19T03:28:28;21.70;74.20
4501;DHT22;2263;54.654;9.410;2022-08-19T03:31:02;21.70;74.30
4501;DHT22;2263;54.654;9.410;2022-08-19T03:33:30;21.70;74.30
4501;DHT22;2263;54.654;9.410;2022-08-19T03:36:08;21.70;74.20
4501;DHT22;2263;54.654;9.410;2022-08-19T03:38:38;21.60;74.20
4501;DHT22;2263;54.654;9.410;2022-08-19T03:41:08;21.60;74.30
4501;DHT22;2263;54.654;9.410;2022-08-19T03:43:38;21.60;74.10
4501;DHT22;2263;54.654;9.410;2022-08-19T03:46:15;21.60;74.10
4501;DHT22;2263;54.654;9.410;2022-08-19T03:48:44;21.60;74.20
4501;DHT22;2263;54.654;9.410;2022-08-19T03:51:41;21.60;74.30
4501;DHT22;2263;54.654;9.410;2022-08-19T03:54:11;21.60;74.30
4501;DHT22;2263;54.654;9.410;2022-08-19T03:56:41;21.60;74.30
4501;DHT22;2263;54.654;9.410;2022-08-19T03:59:12;21.60;74.30
4501;DHT22;2263;54.654;9.410;2022-08-19T04:01:40;21.60;74.30
4501;DHT22;2263;54.654;9.410;2022-08-19T04:04:08;21.50;74.20
4501;DHT22;2263;54.654;9.410;2022-08-19T04:06:37;21.50;74.20
4501;DHT22;2263;54.654;9.410;2022-08-19T04:09:08;21.50;74.30
4501;DHT22;2263;54.654;9.410;2022-08-19T04:11:49;21.50;74.20
4501;DHT22;2263;54.654;9.410;2022-08-19T04:14:20;21.50;74.20
4501;DHT22;2263;54.654;9.410;2022-08-19T04:16:48;21.50;74.30
4501;DHT22;2263;54.654;9.410;2022-08-19T04:19:17;21.50;74.30
4501;DHT22;2263;54.654;9.410;2022-08-19T04:21:48;21.50;74.30
4501;DHT22;2263;54.654;9.410;2022-08-19T04:24:16;21.50;74.30
4501;DHT22;2263;54.654;9.410;2022-08-19T04:26:44;21.50;74.30
4501;DHT22;2263;54.654;9.410;2022-08-19T04:29:18;21.40;74.30
4501;DHT22;2263;54.654;9.410;2022-08-19T04:31:45;21.50;74.30
4501;DHT22;2263;54.654;9.410;2022-08-19T04:34:16;21.40;74.30
4501;DHT22;2263;54.654;9.410;2022-08-19T04:36:44;21.40;74.30
4501;DHT22;2263;54.654;9.410;2022-08-19T04:39:15;21.40;74.30
4501;DHT22;2263;54.654;9.410;2022-08-19T04:41:43;21.40;74.40
4501;DHT22;2263;54.654;9.410;2022-08-19T04:44:31;21.40;74.40
4501;DHT22;2263;54.654;9.410;2022-08-19T04:47:02;21.40;74.40
4501;DHT22;2263;54.654;9.410;2022-08-19T04:49:37;21.40;74.40
4501;DHT22;2263;54.654;9.410;2022-08-19T04:52:04;21.40;74.40
4501;DHT22;2263;54.654;9.410;2022-08-19T04:54:32;21.40;74.50
4501;DHT22;2263;54.654;9.410;2022-08-19T04:57:07;21.40;74.40
4501;DHT22;2263;54.654;9.410;2022-08-19T04:59:39;21.40;74.40
4501;DHT22;2263;54.654;9.410;2022-08-19T05:02:08;21.40;74.40
4501;DHT22;2263;54.654;9.410;2022-08-19T05:04:36;21.40;74.50
4501;DHT22;2263;54.654;9.410;2022-08-19T05:07:07;21.30;74.30
4501;DHT22;2263;54.654;9.410;2022-08-19T05:09:35;21.30;74.40
4501;DHT22;2263;54.654;9.410;2022-08-19T05:12:23;21.30;74.40
4501;DHT22;2263;54.654;9.410;2022-08-19T05:14:56;21.30;74.50
4501;DHT22;2263;54.654;9.410;2022-08-19T05:17:25;21.30;74.40
4501;DHT22;2263;54.654;9.410;2022-08-19T05:19:56;21.30;74.40
4501;DHT22;2263;54.654;9.410;2022-08-19T05:22:43;21.30;74.40
4501;DHT22;2263;54.654;9.410;2022-08-19T05:25:16;21.30;74.50
4501;DHT22;2263;54.654;9.410;2022-08-19T05:27:46;21.30;74.50
4501;DHT22;2263;54.654;9.410;2022-08-19T05:30:14;21.30;74.50
4501;DHT22;2263;54.654;9.410;2022-08-19T05:32:42;21.30;74.40
4501;DHT22;2263;54.654;9.410;2022-08-19T05:35:10;21.30;74.50
4501;DHT22;2263;54.654;9.410;2022-08-19T05:37:38;21.30;74.40
4501;DHT22;2263;54.654;9.410;2022-08-19T05:40:08;21.30;74.50
4501;DHT22;2263;54.654;9.410;2022-08-19T05:42:36;21.30;74.50
4501;DHT22;2263;54.654;9.410;2022-08-19T05:45:04;21.30;74.50
4501;DHT22;2263;54.654;9.410;2022-08-19T05:47:31;21.30;74.50
4501;DHT22;2263;54.654;9.410;2022-08-19T05:49:59;21.30;74.50
4501;DHT22;2263;54.654;9.410;2022-08-19T05:52:30;21.30;74.50
4501;DHT22;2263;54.654;9.410;2022-08-19T05:54:59;21.20;74.50
4501;DHT22;2263;54.654;9.410;2022-08-19T05:57:26;21.20;74.50
4501;DHT22;2263;54.654;9.410;2022-08-19T05:59:56;21.20;74.50
4501;DHT22;2263;54.654;9.410;2022-08-19T06:02:26;21.20;74.50
4501;DHT22;2263;54.654;9.410;2022-08-19T06:04:54;21.20;74.50
4501;DHT22;2263;54.654;9.410;2022-08-19T06:07:21;21.20;74.50
4501;DHT22;2263;54.654;9.410;2022-08-19T06:09:49;21.20;74.40
4501;DHT22;2263;54.654;9.410;2022-08-19T06:12:30;21.20;74.50
4501;DHT22;2263;54.654;9.410;2022-08-19T06:15:10;21.20;74.50
4501;DHT22;2263;54.654;9.410;2022-08-19T06:17:37;21.20;74.60
4501;DHT22;2263;54.654;9.410;2022-08-19T06:20:08;21.20;74.50
4501;DHT22;2263;54.654;9.410;2022-08-19T06:22:41;21.20;74.50
4501;DHT22;2263;54.654;9.410;2022-08-19T06:25:09;21.20;74.50
4501;DHT22;2263;54.654;9.410;2022-08-19T06:27:37;21.20;74.50
4501;DHT22;2263;54.654;9.410;2022-08-19T06:30:19;21.20;74.60
4501;DHT22;2263;54.654;9.410;2022-08-19T06:32:46;21.20;74.60
4501;DHT22;2263;54.654;9.410;2022-08-19T06:35:13;21.20;74.60
4501;DHT22;2263;54.654;9.410;2022-08-19T06:37:41;21.10;75.20
4501;DHT22;2263;54.654;9.410;2022-08-19T06:40:10;21.20;74.70
4501;DHT22;2263;54.654;9.410;2022-08-19T06:42:39;21.10;74.60
4501;DHT22;2263;54.654;9.410;2022-08-19T06:45:20;21.10;74.70
4501;DHT22;2263;54.654;9.410;2022-08-19T06:48:00;21.20;74.80
4501;DHT22;2263;54.654;9.410;2022-08-19T06:50:29;21.10;75.30
4501;DHT22;2263;54.654;9.410;2022-08-19T06:52:56;21.20;74.70
4501;DHT22;2263;54.654;9.410;2022-08-19T06:55:27;21.10;74.70
4501;DHT22;2263;54.654;9.410;2022-08-19T06:58:02;21.20;74.80
4501;DHT22;2263;54.654;9.410;2022-08-19T07:00:31;21.20;74.70
4501;DHT22;2263;54.654;9.410;2022-08-19T07:02:58;21.20;74.70
4501;DHT22;2263;54.654;9.410;2022-08-19T07:05:33;21.20;74.70
4501;DHT22;2263;54.654;9.410;2022-08-19T07:08:13;21.20;74.70
4501;DHT22;2263;54.654;9.410;2022-08-19T07:10:45;21.10;74.70
4501;DHT22;2263;54.654;9.410;2022-08-19T07:13:13;21.20;74.80
4501;DHT22;2263;54.654;9.410;2022-08-19T07:15:40;21.20;74.80
4501;DHT22;2263;54.654;9.410;2022-08-19T07:18:08;21.20;74.80
4501;DHT22;2263;54.654;9.410;2022-08-19T07:20:38;21.20;74.80
4501;DHT22;2263;54.654;9.410;2022-08-19T07:23:08;21.20;74.90
4501;DHT22;2263;54.654;9.410;2022-08-19T07:25:41;21.20;75.00
4501;DHT22;2263;54.654;9.410;2022-08-19T07:28:09;21.20;75.00
4501;DHT22;2263;54.654;9.410;2022-08-19T07:30:51;21.20;75.10
4501;DHT22;2263;54.654;9.410;2022-08-19T07:33:18;21.20;75.10
4501;DHT22;2263;54.654;9.410;2022-08-19T07:35:46;21.20;75.10
4501;DHT22;2263;54.654;9.410;2022-08-19T07:38:13;21.20;75.30
4501;DHT22;2263;54.654;9.410;2022-08-19T07:40:41;21.20;75.20
4501;DHT22;2263;54.654;9.410;2022-08-19T07:43:10;21.20;75.20
4501;DHT22;2263;54.654;9.410;2022-08-19T07:45:43;21.20;75.20
4501;DHT22;2263;54.654;9.410;2022-08-19T07:48:10;21.20;75.30
4501;DHT22;2263;54.654;9.410;2022-08-19T07:50:37;21.20;75.20
4501;DHT22;2263;54.654;9.410;2022-08-19T07:53:05;21.20;75.30
4501;DHT22;2263;54.654;9.410;2022-08-19T07:55:32;21.20;75.20
4501;DHT22;2263;54.654;9.410;2022-08-19T07:58:12;21.20;75.20
4501;DHT22;2263;54.654;9.410;2022-08-19T08:00:40;21.20;75.10
4501;DHT22;2263;54.654;9.410;2022-08-19T08:03:07;21.20;75.10
4501;DHT22;2263;54.654;9.410;2022-08-19T08:05:35;21.20;75.20
4501;DHT22;2263;54.654;9.410;2022-08-19T08:08:21;21.20;75.20
4501;DHT22;2263;54.654;9.410;2022-08-19T08:11:16;21.20;75.40
4501;DHT22;2263;54.654;9.410;2022-08-19T08:13:46;21.20;75.30
4501;DHT22;2263;54.654;9.410;2022-08-19T08:16:37;21.20;75.40
4501;DHT22;2263;54.654;9.410;2022-08-19T08:19:14;21.20;75.50
4501;DHT22;2263;54.654;9.410;2022-08-19T08:21:52;21.20;75.60
4501;DHT22;2263;54.654;9.410;2022-08-19T08:24:20;21.20;75.50
4501;DHT22;2263;54.654;9.410;2022-08-19T08:26:50;21.20;75.60
4501;DHT22;2263;54.654;9.410;2022-08-19T08:29:23;21.20;75.60
4501;DHT22;2263;54.654;9.410;2022-08-19T08:31:52;21.20;75.80
4501;DHT22;2263;54.654;9.410;2022-08-19T08:34:26;21.20;75.90
4501;DHT22;2263;54.654;9.410;2022-08-19T08:36:53;21.30;76.10
4501;DHT22;2263;54.654;9.410;2022-08-19T08:39:20;21.30;76.10
4501;DHT22;2263;54.654;9.410;2022-08-19T08:44:27;21.30;76.30
4501;DHT22;2263;54.654;9.410;2022-08-19T08:47:02;21.30;76.20
4501;DHT22;2263;54.654;9.410;2022-08-19T08:49:52;21.30;76.20
4501;DHT22;2263;54.654;9.410;2022-08-19T08:52:25;21.30;76.30
4501;DHT22;2263;54.654;9.410;2022-08-19T08:55:00;21.30;76.40
4501;DHT22;2263;54.654;9.410;2022-08-19T09:02:47;21.30;76.40
4501;DHT22;2263;54.654;9.410;2022-08-19T09:05:18;21.30;76.70
4501;DHT22;2263;54.654;9.410;2022-08-19T09:08:08;21.30;76.60
4501;DHT22;2263;54.654;9.410;2022-08-19T09:13:31;21.30;76.50
4501;DHT22;2263;54.654;9.410;2022-08-19T09:16:19;21.40;76.50
4501;DHT22;2263;54.654;9.410;2022-08-19T09:18:58;21.30;76.40
4501;DHT22;2263;54.654;9.410;2022-08-19T09:21:28;21.30;76.50
4501;DHT22;2263;54.654;9.410;2022-08-19T09:23:59;21.30;76.50
4501;DHT22;2263;54.654;9.410;2022-08-19T09:26:30;21.30;76.60
4501;DHT22;2263;54.654;9.410;2022-08-19T09:29:19;21.30;76.60
4501;DHT22;2263;54.654;9.410;2022-08-19T09:31:48;21.40;76.80
4501;DHT22;2263;54.654;9.410;2022-08-19T09:34:16;21.40;76.80
4501;DHT22;2263;54.654;9.410;2022-08-19T09:36:49;21.30;76.80
4501;DHT22;2263;54.654;9.410;2022-08-19T09:39:22;21.30;77.10
4501;DHT22;2263;54.654;9.410;2022-08-19T09:41:49;21.40;77.30
4501;DHT22;2263;54.654;9.410;2022-08-19T09:44:17;21.40;77.20
4501;DHT22;2263;54.654;9.410;2022-08-19T09:46:47;21.40;77.10
4501;DHT22;2263;54.654;9.410;2022-08-19T09:49:16;21.40;77.00
4501;DHT22;2263;54.654;9.410;2022-08-19T09:51:45;21.40;77.10
4501;DHT22;2263;54.654;9.410;2022-08-19T09:54:17;21.40;77.20
4501;DHT22;2263;54.654;9.410;2022-08-19T09:56:54;21.40;77.00
4501;DHT22;2263;54.654;9.410;2022-08-19T09:59:21;21.40;77.00
4501;DHT22;2263;54.654;9.410;2022-08-19T10:01:49;21.40;76.80
4501;DHT22;2263;54.654;9.410;2022-08-19T10:04:18;21.40;76.90
4501;DHT22;2263;54.654;9.410;2022-08-19T10:06:49;21.40;76.90
4501;DHT22;2263;54.654;9.410;2022-08-19T10:09:20;21.40;77.00
4501;DHT22;2263;54.654;9.410;2022-08-19T10:12:00;21.40;77.60
4501;DHT22;2263;54.654;9.410;2022-08-19T10:14:28;21.40;77.10
4501;DHT22;2263;54.654;9.410;2022-08-19T10:16:56;21.50;77.20
4501;DHT22;2263;54.654;9.410;2022-08-19T10:19:25;21.40;77.20
4501;DHT22;2263;54.654;9.410;2022-08-19T10:21:53;21.50;77.30
4501;DHT22;2263;54.654;9.410;2022-08-19T10:24:26;21.40;77.40
4501;DHT22;2263;54.654;9.410;2022-08-19T10:26:58;21.50;77.30
4501;DHT22;2263;54.654;9.410;2022-08-19T10:29:27;21.50;77.20
4501;DHT22;2263;54.654;9.410;2022-08-19T10:32:04;21.50;77.30
4501;DHT22;2263;54.654;9.410;2022-08-19T10:34:39;21.50;77.30
4501;DHT22;2263;54.654;9.410;2022-08-19T10:37:16;21.50;78.00
4501;DHT22;2263;54.654;9.410;2022-08-19T10:39:54;21.50;77.30
4501;DHT22;2263;54.654;9.410;2022-08-19T10:42:22;21.50;77.50
4501;DHT22;2263;54.654;9.410;2022-08-19T10:44:49;21.50;77.50
4501;DHT22;2263;54.654;9.410;2022-08-19T10:47:18;21.50;77.50
4501;DHT22;2263;54.654;9.410;2022-08-19T10:49:53;21.50;77.40
4501;DHT22;2263;54.654;9.410;2022-08-19T10:52:46;21.50;77.30
4501;DHT22;2263;54.654;9.410;2022-08-19T10:55:21;21.50;77.30
4501;DHT22;2263;54.654;9.410;2022-08-19T10:58:17;21.50;77.30
4501;DHT22;2263;54.654;9.410;2022-08-19T11:00:56;21.60;77.50
4501;DHT22;2263;54.654;9.410;2022-08-19T11:03:25;21.60;77.50
4501;DHT22;2263;54.654;9.410;2022-08-19T11:06:05;21.60;77.40
4501;DHT22;2263;54.654;9.410;2022-08-19T11:08:34;21.60;77.20
4501;DHT22;2263;54.654;9.410;2022-08-19T11:11:03;21.60;77.70
4501;DHT22;2263;54.654;9.410;2022-08-19T11:13:34;21.60;77.60
4501;DHT22;2263;54.654;9.410;2022-08-19T11:16:13;21.70;77.50
4501;DHT22;2263;54.654;9.410;2022-08-19T11:18:49;21.70;77.40
4501;DHT22;2263;54.654;9.410;2022-08-19T11:21:21;21.70;77.30
4501;DHT22;2263;54.654;9.410;2022-08-19T11:23:52;21.70;77.20
4501;DHT22;2263;54.654;9.410;2022-08-19T11:26:21;21.80;77.10
4501;DHT22;2263;54.654;9.410;2022-08-19T11:28:49;21.80;77.00
4501;DHT22;2263;54.654;9.410;2022-08-19T11:31:22;21.80;77.00
4501;DHT22;2263;54.654;9.410;2022-08-19T11:33:57;21.90;77.00
4501;DHT22;2263;54.654;9.410;2022-08-19T11:36:24;21.90;76.90
4501;DHT22;2263;54.654;9.410;2022-08-19T11:38:51;21.90;77.50
4501;DHT22;2263;54.654;9.410;2022-08-19T11:41:22;21.90;76.80
4501;DHT22;2263;54.654;9.410;2022-08-19T11:43:53;21.90;76.80
4501;DHT22;2263;54.654;9.410;2022-08-19T11:46:24;21.90;76.80
4501;DHT22;2263;54.654;9.410;2022-08-19T11:48:51;21.90;76.80
4501;DHT22;2263;54.654;9.410;2022-08-19T11:51:21;21.90;76.80
4501;DHT22;2263;54.654;9.410;2022-08-19T11:53:49;22.00;76.90
4501;DHT22;2263;54.654;9.410;2022-08-19T11:56:18;22.00;76.80
4501;DHT22;2263;54.654;9.410;2022-08-19T11:58:46;22.00;76.70
4501;DHT22;2263;54.654;9.410;2022-08-19T12:01:16;22.00;76.60
4501;DHT22;2263;54.654;9.410;2022-08-19T12:03:46;22.00;76.70
4501;DHT22;2263;54.654;9.410;2022-08-19T12:06:17;22.00;76.70
4501;DHT22;2263;54.654;9.410;2022-08-19T12:08:45;22.00;76.60
4501;DHT22;2263;54.654;9.410;2022-08-19T12:11:13;22.00;76.60
4501;DHT22;2263;54.654;9.410;2022-08-19T12:13:41;22.00;76.60
4501;DHT22;2263;54.654;9.410;2022-08-19T12:16:14;22.00;76.70
4501;DHT22;2263;54.654;9.410;2022-08-19T12:18:43;22.00;76.70
4501;DHT22;2263;54.654;9.410;2022-08-19T12:21:14;22.00;76.70
4501;DHT22;2263;54.654;9.410;2022-08-19T12:23:42;22.00;76.60
4501;DHT22;2263;54.654;9.410;2022-08-19T12:26:10;22.00;76.60
4501;DHT22;2263;54.654;9.410;2022-08-19T12:28:38;22.10;76.70
4501;DHT22;2263;54.654;9.410;2022-08-19T12:31:05;22.10;76.70
4501;DHT22;2263;54.654;9.410;2022-08-19T12:33:33;22.10;76.60
4501;DHT22;2263;54.654;9.410;2022-08-19T12:36:03;22.10;76.60
4501;DHT22;2263;54.654;9.410;2022-08-19T12:38:33;22.10;76.60
4501;DHT22;2263;54.654;9.410;2022-08-19T12:41:01;22.10;76.50
4501;DHT22;2263;54.654;9.410;2022-08-19T12:43:35;22.10;76.60
4501;DHT22;2263;54.654;9.410;2022-08-19T12:46:04;22.10;76.60
4501;DHT22;2263;54.654;9.410;2022-08-19T12:48:33;22.10;76.50
4501;DHT22;2263;54.654;9.410;2022-08-19T12:51:06;22.10;76.50
4501;DHT22;2263;54.654;9.410;2022-08-19T12:53:36;22.10;76.50
4501;DHT22;2263;54.654;9.410;2022-08-19T12:56:09;22.20;76.50
4501;DHT22;2263;54.654;9.410;2022-08-19T12:58:38;22.10;76.40
4501;DHT22;2263;54.654;9.410;2022-08-19T13:01:08;22.20;76.50
4501;DHT22;2263;54.654;9.410;2022-08-19T13:03:35;22.20;76.50
4501;DHT22;2263;54.654;9.410;2022-08-19T13:06:07;22.20;76.40
4501;DHT22;2263;54.654;9.410;2022-08-19T13:08:35;22.20;76.50
4501;DHT22;2263;54.654;9.410;2022-08-19T13:11:15;22.20;76.40
4501;DHT22;2263;54.654;9.410;2022-08-19T13:13:45;22.20;76.40
4501;DHT22;2263;54.654;9.410;2022-08-19T13:16:13;22.20;76.40
4501;DHT22;2263;54.654;9.410;2022-08-19T13:18:42;22.20;76.40
4501;DHT22;2263;54.654;9.410;2022-08-19T13:21:10;22.20;76.40
4501;DHT22;2263;54.654;9.410;2022-08-19T13:23:41;22.20;76.40
4501;DHT22;2263;54.654;9.410;2022-08-19T13:26:10;22.20;76.50
4501;DHT22;2263;54.654;9.410;2022-08-19T13:28:38;22.20;76.60
4501;DHT22;2263;54.654;9.410;2022-08-19T13:31:25;22.20;76.60
4501;DHT22;2263;54.654;9.410;2022-08-19T13:34:12;22.20;76.50
4501;DHT22;2263;54.654;9.410;2022-08-19T13:36:40;22.20;76.50
4501;DHT22;2263;54.654;9.410;2022-08-19T13:39:08;22.20;76.50
4501;DHT22;2263;54.654;9.410;2022-08-19T13:41:37;22.20;76.50
4501;DHT22;2263;54.654;9.410;2022-08-19T13:44:05;22.30;76.70
4501;DHT22;2263;54.654;9.410;2022-08-19T13:46:33;22.30;76.70
4501;DHT22;2263;54.654;9.410;2022-08-19T13:49:03;22.30;76.70
4501;DHT22;2263;54.654;9.410;2022-08-19T13:51:31;22.30;76.60
4501;DHT22;2263;54.654;9.410;2022-08-19T13:53:58;22.30;76.60
4501;DHT22;2263;54.654;9.410;2022-08-19T13:56:25;22.30;76.60
4501;DHT22;2263;54.654;9.410;2022-08-19T13:58:53;22.30;76.60
4501;DHT22;2263;54.654;9.410;2022-08-19T14:01:21;22.40;77.30
4501;DHT22;2263;54.654;9.410;2022-08-19T14:03:50;22.40;76.60
4501;DHT22;2263;54.654;9.410;2022-08-19T14:06:19;22.40;76.50
4501;DHT22;2263;54.654;9.410;2022-08-19T14:08:46;22.40;76.50
4501;DHT22;2263;54.654;9.410;2022-08-19T14:11:14;22.40;76.50
4501;DHT22;2263;54.654;9.410;2022-08-19T14:13:41;22.40;76.40
4501;DHT22;2263;54.654;9.410;2022-08-19T14:16:10;22.40;76.30
4501;DHT22;2263;54.654;9.410;2022-08-19T14:18:38;22.40;76.30
4501;DHT22;2263;54.654;9.410;2022-08-19T14:21:07;22.40;76.30
4501;DHT22;2263;54.654;9.410;2022-08-19T14:23:34;22.40;76.20
4501;DHT22;2263;54.654;9.410;2022-08-19T14:26:08;22.40;76.20
4501;DHT22;2263;54.654;9.410;2022-08-19T14:28:36;22.40;76.10
4501;DHT22;2263;54.654;9.410;2022-08-19T14:31:04;22.40;76.10
4501;DHT22;2263;54.654;9.410;2022-08-19T14:33:31;22.40;76.10
4501;DHT22;2263;54.654;9.410;2022-08-19T14:35:59;22.40;76.10
4501;DHT22;2263;54.654;9.410;2022-08-19T14:38:27;22.50;76.20
4501;DHT22;2263;54.654;9.410;2022-08-19T14:41:13;22.50;76.20
4501;DHT22;2263;54.654;9.410;2022-08-19T14:43:44;22.50;76.10
4501;DHT22;2263;54.654;9.410;2022-08-19T14:46:14;22.50;76.10
4501;DHT22;2263;54.654;9.410;2022-08-19T14:48:43;22.50;76.10
4501;DHT22;2263;54.654;9.410;2022-08-19T14:51:11;22.50;76.00
4501;DHT22;2263;54.654;9.410;2022-08-19T14:53:38;22.60;76.10
4501;DHT22;2263;54.654;9.410;2022-08-19T14:56:14;22.60;76.00
4501;DHT22;2263;54.654;9.410;2022-08-19T14:58:42;22.60;76.00
4501;DHT22;2263;54.654;9.410;2022-08-19T15:01:11;22.60;75.90
4501;DHT22;2263;54.654;9.410;2022-08-19T15:03:39;22.70;76.00
4501;DHT22;2263;54.654;9.410;2022-08-19T15:06:09;22.70;76.00
4501;DHT22;2263;54.654;9.410;2022-08-19T15:08:41;22.70;76.00
4501;DHT22;2263;54.654;9.410;2022-08-19T15:11:14;22.70;75.80
4501;DHT22;2263;54.654;9.410;2022-08-19T15:13:44;22.70;75.80
4501;DHT22;2263;54.654;9.410;2022-08-19T15:16:13;22.70;75.80
4501;DHT22;2263;54.654;9.410;2022-08-19T15:18:45;22.70;75.80
4501;DHT22;2263;54.654;9.410;2022-08-19T15:21:37;22.70;75.60
4501;DHT22;2263;54.654;9.410;2022-08-19T15:24:12;22.80;75.70
4501;DHT22;2263;54.654;9.410;2022-08-19T15:26:40;22.80;75.80
4501;DHT22;2263;54.654;9.410;2022-08-19T15:29:07;22.80;75.80
4501;DHT22;2263;54.654;9.410;2022-08-19T15:31:35;22.80;75.80
4501;DHT22;2263;54.654;9.410;2022-08-19T15:34:04;22.80;75.70
4501;DHT22;2263;54.654;9.410;2022-08-19T15:36:32;22.80;75.70
4501;DHT22;2263;54.654;9.410;2022-08-19T15:39:03;22.80;75.60
4501;DHT22;2263;54.654;9.410;2022-08-19T15:41:31;22.80;75.60
4501;DHT22;2263;54.654;9.410;2022-08-19T15:44:05;22.90;75.70
4501;DHT22;2263;54.654;9.410;2022-08-19T15:46:37;22.90;75.70
4501;DHT22;2263;54.654;9.410;2022-08-19T15:49:06;22.90;75.70
4501;DHT22;2263;54.654;9.410;2022-08-19T15:51:38;22.90;75.70
4501;DHT22;2263;54.654;9.410;2022-08-19T15:54:07;22.90;75.70
4501;DHT22;2263;54.654;9.410;2022-08-19T15:56:34;22.90;75.60
4501;DHT22;2263;54.654;9.410;2022-08-19T15:59:24;22.90;75.60
4501;DHT22;2263;54.654;9.410;2022-08-19T16:02:14;22.90;75.70
4501;DHT22;2263;54.654;9.410;2022-08-19T16:05:04;22.90;75.60
4501;DHT22;2263;54.654;9.410;2022-08-19T16:07:50;22.90;75.70
4501;DHT22;2263;54.654;9.410;2022-08-19T16:10:17;22.90;75.60
4501;DHT22;2263;54.654;9.410;2022-08-19T16:12:54;22.90;75.70
4501;DHT22;2263;54.654;9.410;2022-08-19T16:15:26;22.90;75.70
4501;DHT22;2263;54.654;9.410;2022-08-19T16:17:55;22.90;75.70
4501;DHT22;2263;54.654;9.410;2022-08-19T16:20:24;22.90;75.70
4501;DHT22;2263;54.654;9.410;2022-08-19T16:22:54;22.90;75.70
4501;DHT22;2263;54.654;9.410;2022-08-19T16:25:22;22.90;75.60
4501;DHT22;2263;54.654;9.410;2022-08-19T16:27:54;22.90;75.60
4501;DHT22;2263;54.654;9.410;2022-08-19T16:30:35;22.90;75.60
4501;DHT22;2263;54.654;9.410;2022-08-19T16:33:03;22.90;75.60
4501;DHT22;2263;54.654;9.410;2022-08-19T16:35:30;22.90;75.60
4501;DHT22;2263;54.654;9.410;2022-08-19T16:37:57;22.90;75.60
4501;DHT22;2263;54.654;9.410;2022-08-19T16:40:24;22.90;75.50